createdAt,value
2022-10-06T00:01:56.453Z,100.00
2022-10-06T00:06:59.038Z,100.00
2022-10-06T00:12:03.190Z,100.00
2022-10-06T00:17:06.132Z,100.00
2022-10-06T00:22:08.744Z,100.00
2022-10-06T00:27:12.697Z,99.66
2022-10-06T00:32:15.254Z,97.88
2022-10-06T00:37:17.885Z,100.00
2022-10-06T00:42:27.185Z,100.00
2022-10-06T00:47:32.577Z,100.00
2022-10-06T00:52:36.164Z,100.00
2022-10-06T00:57:41.745Z,97.20
2022-10-06T01:02:49.425Z,95.81
2022-10-06T01:07:52.356Z,97.04
2022-10-06T01:12:57.157Z,96.84
2022-10-06T01:18:05.308Z,99.97
2022-10-06T01:23:10.215Z,100.00
2022-10-06T01:28:14.705Z,100.00
2022-10-06T01:33:17.278Z,100.00
2022-10-06T01:38:21.994Z,100.00
2022-10-06T01:43:24.879Z,100.00
2022-10-06T01:48:28.384Z,100.00
2022-10-06T01:53:32.432Z,100.00
2022-10-06T01:58:35.023Z,100.00
2022-10-06T02:03:38.326Z,100.00
2022-10-06T02:08:42.255Z,99.70
2022-10-06T02:13:44.876Z,98.41
2022-10-06T02:18:47.829Z,98.85
2022-10-06T02:23:51.898Z,99.56
2022-10-06T02:28:54.730Z,98.48
2022-10-06T02:33:57.439Z,100.00
2022-10-06T02:39:01.372Z,99.90
2022-10-06T02:44:03.950Z,100.00
2022-10-06T02:49:06.515Z,100.00
2022-10-06T02:54:10.550Z,100.00
2022-10-06T02:59:13.797Z,100.00
2022-10-06T03:04:16.379Z,100.00
2022-10-06T03:09:20.448Z,100.00
2022-10-06T03:14:23.083Z,98.13
2022-10-06T03:19:26.346Z,95.56
2022-10-06T03:24:30.484Z,94.43
2022-10-06T03:29:35.088Z,95.43
2022-10-06T03:34:37.755Z,98.51
2022-10-06T03:39:41.990Z,97.36
2022-10-06T03:44:44.591Z,95.31
2022-10-06T03:49:47.145Z,93.89
2022-10-06T03:54:51.228Z,96.13
2022-10-06T03:59:53.827Z,93.61
2022-10-06T04:04:56.500Z,92.22
2022-10-06T04:10:00.500Z,91.68
2022-10-06T04:15:03.079Z,91.80
2022-10-06T04:20:06.241Z,88.64
2022-10-06T04:25:10.940Z,94.09
2022-10-06T04:30:14.416Z,95.84
2022-10-06T04:35:17.275Z,93.58
2022-10-06T04:40:21.215Z,92.21
2022-10-06T04:45:23.971Z,92.68
2022-10-06T04:50:26.571Z,91.97
2022-10-06T04:55:30.503Z,91.55
2022-10-06T05:00:33.936Z,89.53
2022-10-06T05:05:36.607Z,88.31
2022-10-06T05:10:42.097Z,87.50
2022-10-06T05:20:56.406Z,85.07
2022-10-06T05:26:01.554Z,85.26
2022-10-06T05:31:06.507Z,84.85
2022-10-06T05:36:11.813Z,84.98
2022-10-06T05:41:17.461Z,85.24
2022-10-06T05:46:23.826Z,85.43
2022-10-06T05:51:30.926Z,86.06
2022-10-06T05:56:36.666Z,85.78
2022-10-06T06:01:41.010Z,86.17
2022-10-06T06:06:47.269Z,85.76
2022-10-06T06:11:52.591Z,86.27
2022-10-06T06:16:55.253Z,87.79
2022-10-06T06:21:58.118Z,87.03
2022-10-06T06:27:02.102Z,87.46
2022-10-06T06:32:04.745Z,88.53
2022-10-06T06:37:11.595Z,86.54
2022-10-06T06:42:19.740Z,85.67
2022-10-06T06:47:24.477Z,85.04
2022-10-06T06:52:29.280Z,86.15
2022-10-06T06:57:33.250Z,86.19
2022-10-06T07:02:35.827Z,86.96
2022-10-06T07:07:39.752Z,87.51
2022-10-06T07:12:45.403Z,87.79
2022-10-06T07:18:06.030Z,85.10
2022-10-06T07:23:34.451Z,85.66
2022-10-06T07:28:38.498Z,84.27
2022-10-06T07:33:41.848Z,80.67
2022-10-06T07:38:44.402Z,80.45
2022-10-06T07:43:48.359Z,76.87
2022-10-06T07:48:50.964Z,75.74
2022-10-06T07:53:53.780Z,74.61
2022-10-06T07:58:58.977Z,73.61
2022-10-06T08:04:02.462Z,74.24
2022-10-06T08:09:07.756Z,72.82
2022-10-06T08:14:12.712Z,73.34
2022-10-06T08:19:17.166Z,73.84
2022-10-06T08:24:19.738Z,73.50
2022-10-06T08:29:23.789Z,70.88
2022-10-06T08:34:28.966Z,70.87
2022-10-06T08:39:31.798Z,70.76
2022-10-06T08:44:41.798Z,72.24
2022-10-06T08:49:46.951Z,71.37
2022-10-06T08:54:58.365Z,72.25
2022-10-06T09:00:03.418Z,70.87
2022-10-06T09:05:07.865Z,69.28
2022-10-06T09:10:27.990Z,69.87
2022-10-06T09:15:39.527Z,67.16
2022-10-06T09:20:48.266Z,67.51
2022-10-06T09:25:51.043Z,66.45
2022-10-06T09:30:55.568Z,65.84
2022-10-06T09:36:09.475Z,66.67
2022-10-06T09:41:13.451Z,63.95
2022-10-06T09:46:22.821Z,62.84
2022-10-06T09:51:26.089Z,62.86
2022-10-06T09:56:28.731Z,62.14
2022-10-06T10:01:32.803Z,60.52
2022-10-06T10:06:36.431Z,59.46
2022-10-06T10:11:56.751Z,56.50
2022-10-06T10:17:08.995Z,52.87
2022-10-06T10:22:22.583Z,46.27
2022-10-06T10:27:32.560Z,41.29
2022-10-06T10:32:46.078Z,43.27
2022-10-06T10:37:53.288Z,42.55
2022-10-06T10:43:04.471Z,38.80
2022-10-06T10:48:15.743Z,37.32
2022-10-06T10:53:21.921Z,38.57
2022-10-06T10:58:31.200Z,39.91
2022-10-06T11:03:35.274Z,37.67
2022-10-06T11:08:49.947Z,36.73
2022-10-06T11:13:57.492Z,37.71
2022-10-06T11:19:16.644Z,36.17
2022-10-06T11:24:31.020Z,33.22
2022-10-06T11:29:43.134Z,35.26
2022-10-06T11:34:49.437Z,33.46
2022-10-06T11:39:59.443Z,31.61
2022-10-06T11:45:05.098Z,30.98
2022-10-06T11:50:37.754Z,31.98
2022-10-06T11:55:40.529Z,32.33
2022-10-06T12:00:50.737Z,32.57
2022-10-06T12:05:56.527Z,33.22
2022-10-06T12:10:59.746Z,32.68
2022-10-06T12:22:02.011Z,31.76
2022-10-06T12:27:38.946Z,30.73
2022-10-06T12:32:49.828Z,32.81
2022-10-06T12:37:55.058Z,30.91
2022-10-06T12:43:18.505Z,30.69
2022-10-06T12:48:25.772Z,29.71
2022-10-06T12:53:33.759Z,30.93
2022-10-06T12:58:36.579Z,29.70
2022-10-06T13:03:39.773Z,29.79
2022-10-06T13:08:45.334Z,33.92
2022-10-06T13:13:49.036Z,32.22
2022-10-06T13:18:57.287Z,33.84
2022-10-06T13:24:01.321Z,35.55
2022-10-06T13:29:05.251Z,36.94
2022-10-06T13:34:11.720Z,33.45
2022-10-06T13:39:17.670Z,32.47
2022-10-06T13:44:39.573Z,33.39
2022-10-06T13:49:48.312Z,31.24
2022-10-06T13:54:56.214Z,32.01
2022-10-06T14:00:13.803Z,32.79
2022-10-06T14:05:23.272Z,32.97
2022-10-06T14:10:32.389Z,32.14
2022-10-06T14:15:47.101Z,31.39
2022-10-06T14:20:52.033Z,32.78
2022-10-06T14:25:56.671Z,34.16
2022-10-06T14:31:00.357Z,33.07
2022-10-06T14:36:04.319Z,33.08
2022-10-06T14:41:09.916Z,34.93
2022-10-06T14:46:14.866Z,33.93
2022-10-06T14:51:19.382Z,36.69
2022-10-06T14:56:26.731Z,40.45
2022-10-06T15:01:30.558Z,41.57
2022-10-06T15:06:52.417Z,45.52
2022-10-06T15:11:56.839Z,43.86
2022-10-06T15:17:00.586Z,46.52
2022-10-06T15:22:05.887Z,48.52
2022-10-06T15:27:27.728Z,48.95
2022-10-06T15:32:30.737Z,49.91
2022-10-06T15:37:38.697Z,50.50
2022-10-06T15:42:42.768Z,52.17
2022-10-06T15:47:46.594Z,52.21
2022-10-06T15:52:49.218Z,52.38
2022-10-06T15:57:55.207Z,54.06
2022-10-06T16:02:57.948Z,56.68
2022-10-06T16:08:00.812Z,57.98
2022-10-06T16:13:05.588Z,60.27
2022-10-06T16:18:08.235Z,63.82
2022-10-06T16:23:11.183Z,64.46
2022-10-06T16:28:15.583Z,63.30
2022-10-06T16:33:21.106Z,70.24
2022-10-06T16:38:24.391Z,70.84
2022-10-06T16:43:33.549Z,69.61
2022-10-06T16:48:38.209Z,73.25
2022-10-06T16:53:46.122Z,76.90
2022-10-06T16:58:53.484Z,78.10
2022-10-06T17:03:59.589Z,77.97
2022-10-06T17:09:02.960Z,77.22
2022-10-06T17:14:07.187Z,80.47
2022-10-06T17:19:14.805Z,80.39
2022-10-06T17:24:20.641Z,80.28
2022-10-06T17:29:30.372Z,80.99
2022-10-06T17:34:39.827Z,83.69
2022-10-06T17:39:46.978Z,80.97
2022-10-06T17:44:53.001Z,86.05
2022-10-06T17:50:00.512Z,86.55
2022-10-06T17:55:06.251Z,89.76
2022-10-06T18:00:12.145Z,87.29
2022-10-06T18:05:15.470Z,88.44
2022-10-06T18:10:35.916Z,90.36
2022-10-06T18:15:40.782Z,89.80
2022-10-06T18:20:43.975Z,86.67
2022-10-06T18:25:46.806Z,85.14
2022-10-06T18:30:51.884Z,91.37
2022-10-06T18:36:14.705Z,87.27
2022-10-06T18:41:20.448Z,89.41
2022-10-06T18:46:44.590Z,93.65
2022-10-06T18:51:48.896Z,91.00
2022-10-06T18:56:51.747Z,85.36
2022-10-06T19:01:57.854Z,89.30
2022-10-06T19:07:01.019Z,90.35
2022-10-06T19:12:04.044Z,87.86
2022-10-06T19:17:14.189Z,85.85
2022-10-06T19:22:16.857Z,84.28
2022-10-06T19:27:26.188Z,82.91
2022-10-06T19:32:33.461Z,88.05
2022-10-06T19:37:36.059Z,86.44
2022-10-06T19:42:51.179Z,97.83
2022-10-06T19:47:57.426Z,100.00
2022-10-06T19:53:00.350Z,96.42
2022-10-06T19:58:03.459Z,98.41
2022-10-06T20:03:08.639Z,97.58
2022-10-06T20:08:11.149Z,94.36
2022-10-06T20:13:13.769Z,98.68
2022-10-06T20:18:17.984Z,99.03
2022-10-06T20:23:20.811Z,95.23
2022-10-06T20:28:23.495Z,92.18
2022-10-06T20:33:32.836Z,96.00
2022-10-06T20:38:53.291Z,93.21
2022-10-06T20:43:57.163Z,90.85
2022-10-06T20:49:03.476Z,91.49
2022-10-06T20:54:07.202Z,88.74
2022-10-06T20:59:13.555Z,88.87
2022-10-06T21:04:18.389Z,93.94
2022-10-06T21:09:21.424Z,91.53
2022-10-06T21:14:24.181Z,90.40
2022-10-06T21:19:30.167Z,89.71
2022-10-06T21:24:33.275Z,93.89
2022-10-06T21:29:36.473Z,92.49
2022-10-06T21:34:40.789Z,92.06
2022-10-06T21:39:43.713Z,90.47
2022-10-06T21:44:46.709Z,95.55
2022-10-06T21:49:50.832Z,100.00
2022-10-06T21:54:53.805Z,100.00
2022-10-06T21:59:56.552Z,98.70
2022-10-06T22:05:00.740Z,100.00
2022-10-06T22:10:03.625Z,98.51
2022-10-06T22:15:07.613Z,100.00
2022-10-06T22:20:11.966Z,100.00
2022-10-06T22:25:14.847Z,100.00
2022-10-06T22:30:17.635Z,98.58
2022-10-06T22:35:21.652Z,100.00
2022-10-06T22:40:24.483Z,100.00
2022-10-06T22:45:27.413Z,100.00
2022-10-06T22:50:31.745Z,98.98
2022-10-06T22:55:34.834Z,96.77
2022-10-06T23:00:37.969Z,94.02
2022-10-06T23:05:42.189Z,92.93
2022-10-06T23:10:45.223Z,93.46
2022-10-06T23:15:48.231Z,98.22
2022-10-06T23:20:52.581Z,99.31
2022-10-06T23:25:55.533Z,98.01
2022-10-06T23:30:58.329Z,99.46
2022-10-06T23:36:04.408Z,100.00
2022-10-06T23:41:08.884Z,98.61
2022-10-06T23:46:12.196Z,100.00
2022-10-06T23:51:17.084Z,95.25
2022-10-06T23:56:20.889Z,99.53
